createdAt,value
2023-11-26T00:01:18.116Z,2.9
2023-11-26T00:06:25.526Z,2.9
2023-11-26T00:11:32.024Z,2.9
2023-11-26T00:16:38.431Z,2.9
2023-11-26T00:21:44.683Z,2.9
2023-11-26T00:27:15.134Z,2.9
2023-11-26T00:31:57.640Z,2.9
2023-11-26T00:37:04.594Z,2.9
2023-11-26T00:42:10.977Z,2.9
2023-11-26T00:47:45.513Z,2.9
2023-11-26T00:52:23.757Z,2.9
2023-11-26T00:57:50.160Z,2.9
2023-11-26T01:02:36.637Z,3.0
2023-11-26T01:07:42.933Z,3.0
2023-11-26T01:12:52.837Z,3.0
2023-11-26T01:17:59.388Z,3.0
2023-11-26T01:23:05.702Z,3.0
2023-11-26T01:28:12.056Z,3.0
2023-11-26T01:33:18.437Z,3.0
2023-11-26T01:38:25.099Z,3.0
2023-11-26T01:43:31.363Z,3.0
2023-11-26T01:48:37.727Z,2.9
2023-11-26T01:54:04.188Z,2.9
2023-11-26T01:58:50.506Z,2.9
2023-11-26T02:04:00.908Z,2.8
2023-11-26T02:09:07.298Z,2.8
2023-11-26T02:14:09.703Z,2.7
2023-11-26T02:19:16.022Z,2.7
2023-11-26T02:25:19.564Z,2.7
2023-11-26T02:30:06.879Z,2.6
2023-11-26T02:35:13.277Z,2.6
2023-11-26T02:40:19.639Z,2.5
2023-11-26T02:46:00.293Z,2.4
2023-11-26T02:50:32.574Z,2.4
2023-11-26T02:55:38.924Z,2.3
2023-11-26T03:06:18.372Z,2.2
2023-11-26T03:12:36.943Z,2.1
2023-11-26T03:17:45.919Z,2.1
2023-11-26T03:22:52.335Z,2.1
2023-11-26T03:28:18.806Z,2.1
2023-11-26T03:33:05.407Z,2.1
2023-11-26T03:37:50.773Z,2.1
2023-11-26T03:43:17.251Z,2.0
2023-11-26T03:48:02.583Z,2.0
2023-11-26T03:53:11.565Z,2.0
2023-11-26T03:58:17.952Z,2.0
2023-11-26T04:03:24.374Z,2.0
2023-11-26T04:13:37.085Z,2.0
2023-11-26T04:18:43.497Z,2.1
2023-11-26T04:23:49.838Z,2.1
2023-11-26T04:29:24.334Z,2.1
2023-11-26T04:34:08.209Z,2.1
2023-11-26T04:39:10.585Z,2.1
2023-11-26T04:44:20.574Z,2.1
2023-11-26T04:49:26.906Z,2.1
2023-11-26T04:55:13.346Z,2.2
2023-11-26T05:00:10.793Z,2.2
2023-11-26T05:05:17.151Z,2.2
2023-11-26T05:10:33.524Z,2.3
2023-11-26T05:20:46.331Z,2.3
2023-11-26T05:25:52.669Z,2.3
2023-11-26T05:30:59.065Z,2.4
2023-11-26T05:36:29.539Z,2.4
2023-11-26T05:41:11.837Z,2.4
2023-11-26T05:56:20.967Z,2.4
2023-11-26T06:01:36.387Z,2.4
2023-11-26T06:06:44.374Z,2.5
2023-11-26T06:11:50.183Z,2.5
2023-11-26T06:16:56.549Z,2.5
2023-11-26T06:21:52.920Z,2.5
2023-11-26T06:27:10.986Z,2.4
2023-11-26T06:32:17.251Z,2.4
2023-11-26T06:37:27.188Z,2.5
2023-11-26T06:42:33.866Z,2.5
2023-11-26T06:47:40.537Z,2.5
2023-11-26T06:52:46.646Z,2.5
2023-11-26T06:57:53.065Z,2.5
2023-11-26T07:03:27.461Z,2.5
2023-11-26T07:08:09.728Z,2.5
2023-11-26T07:17:15.193Z,2.5
2023-11-26T07:18:23.068Z,2.6
2023-11-26T07:23:29.449Z,2.6
2023-11-26T07:28:38.596Z,2.6
2023-11-26T07:38:50.481Z,2.7
2023-11-26T07:44:20.828Z,2.7
2023-11-26T07:49:41.259Z,2.7
2023-11-26T07:54:15.831Z,2.7
2023-11-26T07:59:35.970Z,2.8
2023-11-26T08:04:59.995Z,2.8
2023-11-26T08:09:33.304Z,2.8
2023-11-26T08:15:25.744Z,2.9
2023-11-26T08:20:53.168Z,2.9
2023-11-26T08:25:39.522Z,3.0
2023-11-26T08:30:45.933Z,3.0
2023-11-26T08:35:52.248Z,3.1
2023-11-26T08:40:48.636Z,3.1
2023-11-26T08:46:05.042Z,3.2
2023-11-26T08:51:11.392Z,3.2
2023-11-26T08:56:21.361Z,3.2
2023-11-26T09:01:27.816Z,3.3
2023-11-26T09:06:34.106Z,3.3
2023-11-26T09:16:46.853Z,3.4
2023-11-26T09:21:53.245Z,3.5
2023-11-26T09:26:59.587Z,3.6
2023-11-26T09:32:05.989Z,3.6
2023-11-26T09:37:46.416Z,3.9
2023-11-26T09:42:53.873Z,3.9
2023-11-26T09:48:00.275Z,4.0
2023-11-26T09:53:06.564Z,4.1
2023-11-26T09:58:12.938Z,4.3
2023-11-26T10:03:19.401Z,4.4
2023-11-26T10:08:25.680Z,4.5
2023-11-26T10:13:32.050Z,4.7
2023-11-26T10:18:38.494Z,4.9
2023-11-26T10:23:44.818Z,5.0
2023-11-26T10:28:51.219Z,5.1
2023-11-26T10:33:57.737Z,5.3
2023-11-26T10:39:04.035Z,5.4
2023-11-26T10:44:10.436Z,5.6
2023-11-26T10:49:16.852Z,5.7
2023-11-26T10:55:00.346Z,6.0
2023-11-26T11:00:08.155Z,6.0
2023-11-26T11:05:14.053Z,6.1
2023-11-26T11:10:20.400Z,6.3
2023-11-26T11:16:00.883Z,6.4
2023-11-26T11:40:58.694Z,7.3
2023-11-26T11:46:05.058Z,7.4
2023-11-26T11:51:11.573Z,7.5
2023-11-26T12:06:30.635Z,7.7
2023-11-26T12:11:41.003Z,7.7
2023-11-26T12:16:43.373Z,7.7
2023-11-26T12:21:49.791Z,7.7
2023-11-26T12:26:56.149Z,7.7
2023-11-26T12:32:02.490Z,7.7
2023-11-26T12:37:08.916Z,7.7
2023-11-26T12:42:15.268Z,7.6
2023-11-26T12:47:21.663Z,7.6
2023-11-26T12:52:18.039Z,7.6
2023-11-26T12:57:34.437Z,7.5
2023-11-26T13:02:40.951Z,7.5
2023-11-26T13:07:47.214Z,7.5
2023-11-26T13:12:53.634Z,7.4
2023-11-26T13:18:28.374Z,7.4
2023-11-26T13:23:06.339Z,7.4
2023-11-26T13:28:12.676Z,7.3
2023-11-26T13:33:19.204Z,7.3
2023-11-26T13:38:29.454Z,7.3
2023-11-26T13:44:05.949Z,7.2
2023-11-26T13:54:19.704Z,7.2
2023-11-26T13:59:26.056Z,7.1
2023-11-26T14:04:32.449Z,7.1
2023-11-26T14:09:38.896Z,7.1
2023-11-26T14:14:49.226Z,7.1
2023-11-26T14:19:51.582Z,7.1
2023-11-26T14:24:58.017Z,7.0
2023-11-26T14:30:04.324Z,7.0
2023-11-26T14:35:10.709Z,7.0
2023-11-26T14:40:17.090Z,6.9
2023-11-26T14:45:23.570Z,6.9
2023-11-26T14:50:29.803Z,6.9
2023-11-26T14:55:36.193Z,6.8
2023-11-26T15:00:42.715Z,6.8
2023-11-26T15:05:48.913Z,6.8
2023-11-26T15:10:55.309Z,6.7
2023-11-26T15:16:01.774Z,6.7
2023-11-26T15:21:28.090Z,6.7
2023-11-26T15:31:27.206Z,6.6
2023-11-26T15:36:39.345Z,6.6
2023-11-26T15:42:54.465Z,6.5
2023-11-26T15:48:01.855Z,6.5
2023-11-26T15:53:08.177Z,6.5
2023-11-26T15:58:14.555Z,6.5
2023-11-26T16:03:11.041Z,6.5
2023-11-26T16:08:27.334Z,6.4
2023-11-26T16:13:55.296Z,6.4
2023-11-26T16:18:31.750Z,6.4
2023-11-26T16:24:29.044Z,6.3
2023-11-26T16:34:25.826Z,6.3
2023-11-26T16:39:32.196Z,6.3
2023-11-26T16:44:48.585Z,6.2
2023-11-26T16:49:58.978Z,6.2
2023-11-26T16:55:01.399Z,6.2
2023-11-26T17:00:27.769Z,6.1
2023-11-26T17:05:14.101Z,6.1
2023-11-26T17:10:44.487Z,6.1
2023-11-26T17:15:26.939Z,6.0
2023-11-26T17:20:33.222Z,6.0
2023-11-26T17:25:39.572Z,6.0
2023-11-26T17:30:48.983Z,6.0
2023-11-26T17:35:52.355Z,6.0
2023-11-26T17:41:36.769Z,6.0
2023-11-26T17:46:09.137Z,5.9
2023-11-26T17:51:35.564Z,5.9
2023-11-26T18:06:58.702Z,5.8
2023-11-26T18:11:40.480Z,5.9
2023-11-26T18:16:50.611Z,5.8
2023-11-26T18:21:53.349Z,5.8
2023-11-26T18:27:03.648Z,5.8
2023-11-26T18:38:07.455Z,5.8
2023-11-26T18:42:44.863Z,5.8
2023-11-26T18:53:07.570Z,5.8
2023-11-26T18:58:13.993Z,5.8
2023-11-26T19:03:20.457Z,5.8
2023-11-26T19:10:08.135Z,5.8
2023-11-26T19:14:32.610Z,5.8
2023-11-26T19:20:03.131Z,5.8
2023-11-26T19:26:05.622Z,5.8
2023-11-26T19:29:56.480Z,5.8
2023-11-26T19:35:38.525Z,5.8
2023-11-26T19:40:38.124Z,5.7
2023-11-26T19:45:17.251Z,5.7
2023-11-26T19:50:47.654Z,5.7
2023-11-26T20:11:13.834Z,5.9
2023-11-26T20:16:21.198Z,5.9
2023-11-26T20:21:27.602Z,5.9
2023-11-26T20:26:54.031Z,5.8
2023-11-26T20:31:40.381Z,5.8
2023-11-26T20:36:51.101Z,5.7
2023-11-26T20:43:21.312Z,5.7
2023-11-26T20:47:44.601Z,5.7
2023-11-26T20:57:57.478Z,5.7
2023-11-26T21:03:03.945Z,5.7
2023-11-26T21:08:44.311Z,5.7
2023-11-26T21:13:16.664Z,5.7
2023-11-26T21:18:13.023Z,5.7
2023-11-26T21:23:29.392Z,5.7
2023-11-26T21:28:25.735Z,5.7
2023-11-26T21:33:42.208Z,5.7
2023-11-26T21:49:01.389Z,5.7
2023-11-26T21:54:46.154Z,5.7
2023-11-26T21:59:14.469Z,5.7
2023-11-26T22:09:28.411Z,5.6
2023-11-26T22:14:34.873Z,5.6
2023-11-26T22:19:45.296Z,5.6
2023-11-26T22:24:37.693Z,5.6
2023-11-26T22:30:22.080Z,5.6
2023-11-26T22:35:03.119Z,5.5
2023-11-26T22:40:33.580Z,5.5
2023-11-26T22:50:22.452Z,5.5
2023-11-26T22:55:28.819Z,5.5
2023-11-26T23:05:40.607Z,5.4
2023-11-26T23:15:58.355Z,5.4
2023-11-26T23:21:00.759Z,5.4
2023-11-26T23:27:56.986Z,5.4
2023-11-26T23:31:17.253Z,5.3
2023-11-26T23:36:23.285Z,5.3
2023-11-26T23:41:33.643Z,5.3
2023-11-26T23:47:25.101Z,5.3
2023-11-26T23:57:42.501Z,5.3
